createdAt,value
2018-08-03T00:00:15.124Z,2.375
2018-08-03T00:03:15.327Z,2.275
2018-08-03T00:06:15.672Z,3.475
2018-08-03T00:09:15.637Z,1.575
2018-08-03T00:12:15.840Z,2.475
2018-08-03T00:15:15.121Z,1.775
2018-08-03T00:18:15.538Z,1.425
2018-08-03T00:21:15.728Z,2.888
2018-08-03T00:24:14.966Z,3.037
2018-08-03T00:27:15.229Z,2.550
2018-08-03T00:30:15.475Z,2.025
2018-08-03T00:33:15.718Z,2.188
2018-08-03T00:36:15.785Z,2.550
2018-08-03T00:39:15.124Z,2.975
2018-08-03T00:42:15.383Z,2.775
2018-08-03T00:45:15.611Z,3.288
2018-08-03T00:48:15.762Z,1.788
2018-08-03T00:51:15.908Z,2.725
2018-08-03T00:54:15.218Z,3.888
2018-08-03T00:57:15.533Z,3.025
2018-08-03T01:00:15.702Z,2.887
2018-08-03T01:03:15.893Z,2.850
2018-08-03T01:06:15.114Z,3.938
2018-08-03T01:09:15.416Z,3.775
2018-08-03T01:12:15.711Z,3.513
2018-08-03T01:15:15.970Z,3.450
2018-08-03T01:18:15.316Z,3.612
2018-08-03T01:21:15.537Z,4.037
2018-08-03T01:24:15.640Z,1.900
2018-08-03T01:27:15.814Z,2.037
2018-08-03T01:30:15.131Z,3.212
2018-08-03T01:33:15.413Z,2.688
2018-08-03T01:36:15.617Z,3.562
2018-08-03T01:39:15.731Z,4.050
2018-08-03T01:42:15.954Z,3.138
2018-08-03T01:45:15.126Z,3.487
2018-08-03T01:48:15.369Z,2.237
2018-08-03T01:51:15.608Z,3.300
2018-08-03T01:54:15.740Z,2.500
2018-08-03T01:57:14.929Z,2.575
2018-08-03T02:00:15.561Z,1.488
2018-08-03T02:03:15.789Z,1.762
2018-08-03T02:06:15.099Z,3.300
2018-08-03T02:09:15.668Z,4.125
2018-08-03T02:12:15.940Z,3.100
2018-08-03T02:15:15.125Z,2.550
2018-08-03T02:18:15.490Z,3.125
2018-08-03T02:21:15.614Z,2.987
2018-08-03T02:24:16.057Z,2.000
2018-08-03T02:27:15.273Z,2.850
2018-08-03T02:30:15.483Z,3.388
2018-08-03T02:33:15.617Z,2.400
2018-08-03T02:36:15.918Z,1.612
2018-08-03T02:39:15.110Z,2.675
2018-08-03T02:42:15.344Z,1.800
2018-08-03T02:45:15.691Z,2.763
2018-08-03T02:48:16.056Z,1.962
2018-08-03T02:51:15.248Z,2.537
2018-08-03T02:54:15.459Z,1.663
2018-08-03T02:57:15.682Z,2.100
2018-08-03T03:00:15.176Z,3.725
2018-08-03T03:03:15.415Z,2.675
2018-08-03T03:06:15.553Z,2.150
2018-08-03T03:09:15.712Z,5.287
2018-08-03T03:12:14.975Z,3.400
2018-08-03T03:15:15.215Z,2.550
2018-08-03T03:18:15.344Z,3.388
2018-08-03T03:21:15.582Z,3.888
2018-08-03T03:24:15.841Z,2.825
2018-08-03T03:27:15.003Z,3.237
2018-08-03T03:30:15.319Z,3.188
2018-08-03T03:33:15.610Z,1.675
2018-08-03T03:36:16.068Z,3.350
2018-08-03T03:39:15.360Z,2.225
2018-08-03T03:42:15.514Z,2.650
2018-08-03T03:45:15.598Z,3.125
2018-08-03T03:48:15.849Z,2.625
2018-08-03T03:51:15.044Z,3.287
2018-08-03T03:54:15.104Z,2.237
2018-08-03T03:57:15.306Z,1.863
2018-08-03T04:00:15.516Z,1.975
2018-08-03T04:03:15.700Z,2.688
2018-08-03T04:06:15.973Z,3.650
2018-08-03T04:09:15.138Z,2.025
2018-08-03T04:12:15.501Z,2.900
2018-08-03T04:15:15.736Z,1.262
2018-08-03T04:18:15.291Z,2.725
2018-08-03T04:21:15.562Z,3.450
2018-08-03T04:24:15.833Z,4.025
2018-08-03T04:27:15.811Z,4.088
2018-08-03T04:30:15.082Z,2.525
2018-08-03T04:33:15.264Z,3.625
2018-08-03T04:36:15.715Z,4.812
2018-08-03T04:39:15.970Z,9.562
2018-08-03T04:42:15.325Z,4.812
2018-08-03T04:45:15.019Z,5.812
2018-08-03T04:48:15.233Z,4.175
2018-08-03T04:51:15.479Z,4.638
2018-08-03T04:54:15.665Z,2.850
2018-08-03T04:57:14.989Z,3.312
2018-08-03T05:00:15.815Z,2.250
2018-08-03T05:03:15.040Z,1.962
2018-08-03T05:06:15.896Z,3.825
2018-08-03T05:09:15.227Z,2.862
2018-08-03T05:12:15.521Z,4.050
2018-08-03T05:15:15.725Z,5.075
2018-08-03T05:18:15.062Z,2.812
2018-08-03T05:21:15.382Z,2.575
2018-08-03T05:24:15.912Z,4.225
2018-08-03T05:27:15.664Z,4.363
2018-08-03T05:30:15.979Z,3.462
2018-08-03T05:33:15.310Z,5.237
2018-08-03T05:36:15.663Z,4.863
2018-08-03T05:39:16.182Z,3.150
2018-08-03T05:42:15.559Z,8.150
2018-08-03T05:45:15.461Z,3.987
2018-08-03T05:48:15.861Z,3.463
2018-08-03T05:51:15.150Z,2.612
2018-08-03T05:54:15.522Z,3.787
2018-08-03T05:57:16.075Z,4.750
2018-08-03T06:00:15.504Z,4.875
2018-08-03T06:03:15.975Z,6.225
2018-08-03T06:06:15.488Z,11.275
2018-08-03T06:09:16.097Z,12.075
2018-08-03T06:12:15.703Z,5.112
2018-08-03T06:15:15.269Z,64.338
2018-08-03T06:18:16.065Z,4.800
2018-08-03T06:21:15.708Z,5.037
2018-08-03T06:24:15.318Z,4.500
2018-08-03T06:27:16.015Z,5.038
2018-08-03T06:30:15.650Z,3.825
2018-08-03T06:33:15.540Z,6.000
2018-08-03T06:36:16.224Z,7.275
2018-08-03T06:39:15.910Z,5.500
2018-08-03T06:42:15.532Z,4.662
2018-08-03T06:45:16.367Z,6.225
2018-08-03T06:48:16.124Z,4.338
2018-08-03T06:51:15.808Z,5.625
2018-08-03T06:54:15.583Z,6.438
2018-08-03T06:57:16.228Z,5.863
2018-08-03T07:00:15.948Z,6.075
2018-08-03T07:03:15.849Z,4.812
2018-08-03T07:06:15.465Z,6.125
2018-08-03T07:09:16.140Z,8.812
2018-08-03T07:12:15.917Z,8.012
2018-08-03T07:15:15.627Z,7.388
2018-08-03T07:18:15.546Z,9.488
2018-08-03T07:21:16.229Z,9.025
2018-08-03T07:24:15.674Z,10.850
2018-08-03T07:27:15.261Z,13.875
2018-08-03T07:30:15.984Z,16.200
2018-08-03T07:33:15.725Z,15.988
2018-08-03T07:36:15.412Z,17.587
2018-08-03T07:39:16.132Z,16.350
2018-08-03T07:42:15.806Z,18.950
2018-08-03T07:45:15.493Z,23.312
2018-08-03T07:48:16.098Z,22.538
2018-08-03T07:51:15.747Z,24.562
2018-08-03T07:54:15.495Z,27.087
2018-08-03T07:57:16.287Z,23.775
2018-08-03T08:00:16.125Z,27.188
2018-08-03T08:03:15.887Z,29.013
2018-08-03T08:06:15.646Z,26.850
2018-08-03T08:09:16.290Z,32.075
2018-08-03T08:12:15.993Z,30.725
2018-08-03T08:15:15.806Z,35.912
2018-08-03T08:18:15.672Z,41.575
2018-08-03T08:21:15.831Z,41.237
2018-08-03T08:24:15.886Z,41.963
2018-08-03T08:27:16.117Z,39.237
2018-08-03T08:30:16.419Z,43.875
2018-08-03T08:33:16.754Z,44.950
2018-08-03T08:36:16.036Z,38.375
2018-08-03T08:39:16.651Z,39.838
2018-08-03T08:42:16.282Z,45.100
2018-08-03T08:45:16.609Z,49.613
2018-08-03T08:48:16.059Z,40.150
2018-08-03T08:51:16.356Z,50.413
2018-08-03T08:54:16.622Z,45.038
2018-08-03T08:57:16.910Z,34.388
2018-08-03T09:00:16.156Z,44.638
2018-08-03T09:03:16.528Z,38.662
2018-08-03T09:06:16.939Z,45.088
2018-08-03T09:09:16.588Z,35.700
2018-08-03T09:12:17.184Z,36.062
2018-08-03T09:15:16.792Z,35.838
2018-08-03T09:18:16.785Z,43.925
2018-08-03T09:21:16.442Z,39.050
2018-08-03T09:24:17.130Z,35.650
2018-08-03T09:27:17.088Z,39.200
2018-08-03T09:30:16.772Z,33.737
2018-08-03T09:33:16.810Z,28.312
2018-08-03T09:36:16.445Z,34.100
2018-08-03T09:39:16.897Z,30.537
2018-08-03T09:42:16.379Z,25.663
2018-08-03T09:45:17.069Z,27.637
2018-08-03T09:48:16.501Z,27.975
2018-08-03T09:51:16.791Z,23.413
2018-08-03T09:54:15.985Z,26.225
2018-08-03T09:57:16.160Z,24.888
2018-08-03T10:00:16.419Z,21.675
2018-08-03T10:03:16.174Z,18.725
2018-08-03T10:06:16.245Z,17.950
2018-08-03T10:09:16.241Z,20.462
2018-08-03T10:12:16.222Z,20.650
2018-08-03T10:15:16.024Z,20.188
2018-08-03T10:18:15.927Z,13.850
2018-08-03T10:21:15.584Z,15.100
2018-08-03T10:24:16.321Z,18.950
2018-08-03T10:27:15.981Z,13.975
2018-08-03T10:30:15.692Z,15.700
2018-08-03T10:33:16.315Z,15.188
2018-08-03T10:36:16.187Z,11.275
2018-08-03T10:39:15.808Z,14.887
2018-08-03T10:42:15.495Z,13.525
2018-08-03T10:45:16.228Z,13.962
2018-08-03T10:48:15.966Z,10.175
2018-08-03T10:51:15.674Z,10.300
2018-08-03T10:54:16.722Z,14.125
2018-08-03T10:57:16.192Z,12.525
2018-08-03T11:00:16.816Z,16.750
2018-08-03T11:03:17.591Z,20.075
2018-08-03T11:06:18.435Z,31.662
2018-08-03T11:09:19.457Z,41.150
2018-08-03T11:12:19.620Z,57.325
2018-08-03T11:15:20.599Z,75.438
2018-08-03T11:18:22.134Z,118.875
2018-08-03T11:21:23.116Z,137.613
2018-08-03T11:24:24.196Z,174.925
2018-08-03T11:27:23.625Z,188.600
2018-08-03T11:30:23.718Z,197.400
2018-08-03T11:33:23.875Z,204.300
2018-08-03T11:36:24.066Z,243.712
2018-08-03T11:39:21.678Z,193.950
2018-08-03T11:42:18.982Z,151.338
2018-08-03T11:45:18.053Z,70.675
2018-08-03T11:48:17.699Z,43.300
2018-08-03T11:51:16.427Z,32.000
2018-08-03T11:54:16.683Z,20.675
2018-08-03T11:57:15.499Z,14.275
2018-08-03T12:00:16.292Z,10.750
2018-08-03T12:03:16.088Z,11.200
2018-08-03T12:06:15.925Z,10.100
2018-08-03T12:09:15.591Z,8.137
2018-08-03T12:12:16.314Z,7.288
2018-08-03T12:15:16.622Z,7.613
2018-08-03T12:18:15.335Z,6.925
2018-08-03T12:21:16.170Z,6.363
2018-08-03T12:24:16.115Z,6.787
2018-08-03T12:27:15.859Z,7.175
2018-08-03T12:30:15.616Z,5.925
2018-08-03T12:33:15.371Z,4.787
2018-08-03T12:36:16.245Z,6.400
2018-08-03T12:39:16.098Z,6.638
2018-08-03T12:42:15.927Z,4.513
2018-08-03T12:45:15.642Z,5.638
2018-08-03T12:48:15.395Z,5.850
2018-08-03T12:51:16.196Z,5.213
2018-08-03T12:54:15.906Z,4.750
2018-08-03T12:57:15.704Z,6.825
2018-08-03T13:00:15.403Z,5.950
2018-08-03T13:03:15.540Z,5.450
2018-08-03T13:06:16.289Z,5.275
2018-08-03T13:09:16.106Z,6.212
2018-08-03T13:12:15.785Z,5.675
2018-08-03T13:15:15.628Z,4.238
2018-08-03T13:18:15.497Z,4.263
2018-08-03T13:21:16.392Z,4.463
2018-08-03T13:24:15.610Z,5.200
2018-08-03T13:27:15.419Z,6.125
2018-08-03T13:30:16.225Z,6.600
2018-08-03T13:33:16.342Z,4.537
2018-08-03T13:36:16.331Z,5.713
2018-08-03T13:39:16.426Z,4.875
2018-08-03T13:42:16.208Z,5.575
2018-08-03T13:45:15.997Z,4.213
2018-08-03T13:48:15.776Z,5.412
2018-08-03T13:51:15.512Z,4.650
2018-08-03T13:54:16.223Z,5.388
2018-08-03T13:57:16.070Z,6.350
2018-08-03T14:00:15.766Z,3.938
2018-08-03T14:03:15.642Z,5.825
2018-08-03T14:06:15.412Z,5.625
2018-08-03T14:09:15.741Z,4.338
2018-08-03T14:12:15.488Z,5.725
2018-08-03T14:15:16.165Z,5.225
2018-08-03T14:18:16.014Z,5.013
2018-08-03T14:21:15.847Z,4.975
2018-08-03T14:24:15.832Z,3.950
2018-08-03T14:27:15.748Z,5.737
2018-08-03T14:30:16.207Z,3.787
2018-08-03T14:33:16.189Z,5.812
2018-08-03T14:36:15.850Z,3.600
2018-08-03T14:39:15.548Z,4.450
2018-08-03T14:42:16.260Z,5.175
2018-08-03T14:45:15.983Z,6.412
2018-08-03T14:48:15.669Z,4.662
2018-08-03T14:51:15.346Z,4.312
2018-08-03T14:54:16.061Z,5.825
2018-08-03T14:57:15.779Z,3.438
2018-08-03T15:00:15.631Z,3.938
2018-08-03T15:03:15.502Z,5.225
2018-08-03T15:06:16.206Z,2.763
2018-08-03T15:09:15.853Z,5.388
2018-08-03T15:12:15.524Z,3.575
2018-08-03T15:15:16.252Z,4.487
2018-08-03T15:18:15.890Z,3.225
2018-08-03T15:21:15.610Z,5.112
2018-08-03T15:24:15.881Z,4.500
2018-08-03T15:27:15.685Z,3.413
2018-08-03T15:30:15.446Z,3.538
2018-08-03T15:33:16.336Z,4.200
2018-08-03T15:36:16.167Z,5.775
2018-08-03T15:39:16.261Z,4.387
2018-08-03T15:42:16.298Z,4.838
2018-08-03T15:45:15.803Z,3.737
2018-08-03T15:48:15.693Z,5.062
2018-08-03T15:51:15.496Z,3.488
2018-08-03T15:54:16.177Z,3.612
2018-08-03T15:57:16.072Z,4.812
2018-08-03T16:00:16.021Z,6.688
2018-08-03T16:03:15.843Z,4.262
2018-08-03T16:06:15.609Z,3.600
2018-08-03T16:09:15.480Z,5.213
2018-08-03T16:12:16.230Z,5.500
2018-08-03T16:15:21.479Z,4.550
2018-08-03T16:18:15.823Z,4.300
2018-08-03T16:21:15.543Z,3.938
2018-08-03T16:24:16.348Z,4.887
2018-08-03T16:27:16.184Z,4.487
2018-08-03T16:30:21.997Z,3.075
2018-08-03T16:33:16.049Z,3.300
2018-08-03T16:36:15.392Z,2.650
2018-08-03T16:39:16.380Z,2.763
2018-08-03T16:42:16.365Z,3.638
2018-08-03T16:45:16.258Z,3.825
2018-08-03T16:48:15.532Z,2.950
2018-08-03T16:51:16.400Z,4.513
2018-08-03T16:54:15.563Z,3.212
2018-08-03T16:57:16.379Z,2.525
2018-08-03T17:00:16.272Z,3.075
2018-08-03T17:03:16.075Z,4.550
2018-08-03T17:06:15.860Z,4.625
2018-08-03T17:09:15.852Z,3.312
2018-08-03T17:12:15.740Z,3.350
2018-08-03T17:15:15.457Z,4.912
2018-08-03T17:18:16.374Z,5.850
2018-08-03T17:21:16.323Z,2.875
2018-08-03T17:24:16.287Z,5.375
2018-08-03T17:27:16.085Z,4.250
2018-08-03T17:33:16.344Z,9.550
2018-08-03T17:36:16.314Z,5.825
2018-08-03T17:39:15.995Z,6.188
2018-08-03T17:42:16.142Z,3.988
2018-08-03T17:45:15.850Z,2.762
2018-08-03T17:48:15.664Z,3.975
2018-08-03T17:51:15.447Z,2.925
2018-08-03T17:54:16.214Z,2.850
2018-08-03T17:57:16.022Z,3.275
2018-08-03T18:00:15.831Z,2.788
2018-08-03T18:03:15.367Z,3.000
2018-08-03T18:06:16.063Z,3.650
2018-08-03T18:09:15.753Z,2.612
2018-08-03T18:12:15.690Z,3.825
2018-08-03T18:15:15.378Z,2.325
2018-08-03T18:18:15.501Z,4.175
2018-08-03T18:21:16.318Z,8.637
2018-08-03T18:24:16.198Z,2.812
2018-08-03T18:27:15.958Z,3.038
2018-08-03T18:30:15.728Z,4.000
2018-08-03T18:33:15.638Z,2.650
2018-08-03T18:36:15.843Z,2.938
2018-08-03T18:39:15.446Z,3.150
2018-08-03T18:42:15.461Z,2.362
2018-08-03T18:45:15.738Z,2.975
2018-08-03T18:48:15.588Z,3.913
2018-08-03T18:51:15.334Z,2.812
2018-08-03T18:54:16.070Z,2.312
2018-08-03T18:57:15.888Z,3.575
2018-08-03T19:00:16.325Z,3.275
2018-08-03T19:03:16.197Z,1.812
2018-08-03T19:06:15.987Z,3.138
2018-08-03T19:09:15.686Z,3.262
2018-08-03T19:12:15.497Z,2.513
2018-08-03T19:15:16.319Z,4.000
2018-08-03T19:18:16.239Z,3.800
2018-08-03T19:21:15.993Z,3.637
2018-08-03T19:24:15.867Z,4.400
2018-08-03T19:27:15.579Z,3.237
2018-08-03T19:30:16.315Z,8.262
2018-08-03T19:33:16.136Z,4.812
2018-08-03T19:36:16.195Z,3.200
2018-08-03T19:39:15.921Z,3.800
2018-08-03T19:42:15.700Z,3.363
2018-08-03T19:45:15.529Z,1.638
2018-08-03T19:48:15.549Z,3.325
2018-08-03T19:51:15.485Z,4.963
2018-08-03T19:54:16.167Z,5.688
2018-08-03T19:57:15.925Z,3.738
2018-08-03T20:00:15.809Z,3.338
2018-08-03T20:03:15.521Z,2.975
2018-08-03T20:06:15.390Z,5.650
2018-08-03T20:09:16.271Z,3.162
2018-08-03T20:12:15.981Z,4.113
2018-08-03T20:15:15.784Z,5.188
2018-08-03T20:18:15.777Z,4.150
2018-08-03T20:21:15.796Z,4.838
2018-08-03T20:24:15.847Z,17.650
2018-08-03T20:27:15.698Z,14.713
2018-08-03T20:30:15.464Z,9.300
2018-08-03T20:33:15.581Z,6.075
2018-08-03T20:36:15.621Z,5.237
2018-08-03T20:39:15.540Z,5.000
2018-08-03T20:42:16.296Z,7.188
2018-08-03T20:45:16.010Z,6.012
2018-08-03T20:48:16.164Z,4.338
2018-08-03T20:51:15.921Z,3.487
2018-08-03T20:54:15.816Z,5.525
2018-08-03T20:57:15.610Z,6.150
2018-08-03T21:00:15.766Z,5.800
2018-08-03T21:03:15.532Z,3.737
2018-08-03T21:06:16.185Z,4.312
2018-08-03T21:09:15.922Z,4.312
2018-08-03T21:12:15.554Z,5.475
2018-08-03T21:15:16.131Z,4.325
2018-08-03T21:18:15.795Z,4.700
2018-08-03T21:21:15.424Z,6.725
2018-08-03T21:24:15.998Z,13.625
2018-08-03T21:27:15.409Z,4.537
2018-08-03T21:30:16.085Z,2.738
2018-08-03T21:33:15.676Z,4.650
2018-08-03T21:36:15.354Z,3.625
2018-08-03T21:39:15.932Z,4.900
2018-08-03T21:42:15.392Z,7.925
2018-08-03T21:45:15.791Z,4.938
2018-08-03T21:48:15.229Z,2.525
2018-08-03T21:51:15.613Z,4.275
2018-08-03T21:54:16.130Z,3.275
2018-08-03T21:57:15.635Z,2.725
2018-08-03T22:00:16.034Z,2.850
2018-08-03T22:03:15.554Z,3.162
2018-08-03T22:06:15.995Z,2.737
2018-08-03T22:09:15.379Z,3.725
2018-08-03T22:12:15.677Z,5.425
2018-08-03T22:15:15.188Z,3.162
2018-08-03T22:18:15.596Z,2.600
2018-08-03T22:21:15.108Z,3.525
2018-08-03T22:24:15.613Z,3.062
2018-08-03T22:27:15.410Z,1.988
2018-08-03T22:30:15.816Z,2.413
2018-08-03T22:33:15.204Z,2.425
2018-08-03T22:36:15.704Z,5.875
2018-08-03T22:39:15.146Z,3.050
2018-08-03T22:42:15.567Z,2.038
2018-08-03T22:45:15.908Z,1.812
2018-08-03T22:48:15.287Z,3.413
2018-08-03T22:51:15.658Z,4.275
2018-08-03T22:54:15.062Z,2.475
2018-08-03T22:57:15.384Z,1.925
2018-08-03T23:00:15.706Z,2.500
2018-08-03T23:03:15.178Z,2.700
2018-08-03T23:06:15.491Z,2.638
2018-08-03T23:09:15.910Z,2.037
2018-08-03T23:12:15.186Z,2.275
2018-08-03T23:15:15.583Z,2.237
2018-08-03T23:18:15.149Z,2.413
2018-08-03T23:21:15.478Z,2.087
2018-08-03T23:24:15.857Z,1.863
2018-08-03T23:27:15.269Z,2.175
2018-08-03T23:30:15.642Z,2.138
2018-08-03T23:33:15.949Z,1.962
2018-08-03T23:36:15.355Z,2.150
2018-08-03T23:39:15.856Z,3.325
2018-08-03T23:42:15.191Z,29.425
2018-08-03T23:45:15.696Z,5.250
2018-08-03T23:48:15.112Z,2.487
2018-08-03T23:51:15.549Z,2.513
2018-08-03T23:54:15.847Z,2.013
2018-08-03T23:57:15.210Z,3.275
